sensor_id;sensor_type;location;lat;lon;timestamp;temperature;humidity
20654;DHT22;21083;50.898;4.902;2023-03-23T00:01:06;13.50;99.90
20654;DHT22;21083;50.898;4.902;2023-03-23T00:03:35;13.60;99.90
20654;DHT22;21083;50.898;4.902;2023-03-23T00:06:04;13.70;99.90
20654;DHT22;21083;50.898;4.902;2023-03-23T00:08:32;13.60;99.90
20654;DHT22;21083;50.898;4.902;2023-03-23T00:11:03;13.70;99.90
20654;DHT22;21083;50.898;4.902;2023-03-23T00:13:30;13.60;99.90
20654;DHT22;21083;50.898;4.902;2023-03-23T00:15:58;13.60;99.90
20654;DHT22;21083;50.898;4.902;2023-03-23T00:18:25;13.70;99.90
20654;DHT22;21083;50.898;4.902;2023-03-23T00:20:54;13.60;99.90
20654;DHT22;21083;50.898;4.902;2023-03-23T00:23:24;13.50;99.90
20654;DHT22;21083;50.898;4.902;2023-03-23T00:25:53;13.60;99.90
20654;DHT22;21083;50.898;4.902;2023-03-23T00:28:23;13.60;99.90
20654;DHT22;21083;50.898;4.902;2023-03-23T00:30:55;13.60;99.90
20654;DHT22;21083;50.898;4.902;2023-03-23T00:33:23;13.60;99.90
20654;DHT22;21083;50.898;4.902;2023-03-23T00:35:52;13.60;99.90
20654;DHT22;21083;50.898;4.902;2023-03-23T00:38:21;13.60;99.90
20654;DHT22;21083;50.898;4.902;2023-03-23T00:40:48;13.60;99.90
20654;DHT22;21083;50.898;4.902;2023-03-23T00:43:17;13.60;99.90
20654;DHT22;21083;50.898;4.902;2023-03-23T00:45:45;13.50;99.90
20654;DHT22;21083;50.898;4.902;2023-03-23T00:48:18;13.50;99.90
20654;DHT22;21083;50.898;4.902;2023-03-23T00:50:45;13.60;99.90
20654;DHT22;21083;50.898;4.902;2023-03-23T00:53:12;13.50;99.90
20654;DHT22;21083;50.898;4.902;2023-03-23T00:55:41;13.50;99.90
20654;DHT22;21083;50.898;4.902;2023-03-23T00:58:08;13.40;99.90
20654;DHT22;21083;50.898;4.902;2023-03-23T01:00:36;13.50;99.90
20654;DHT22;21083;50.898;4.902;2023-03-23T01:03:03;13.50;99.90
20654;DHT22;21083;50.898;4.902;2023-03-23T01:05:34;13.40;99.90
20654;DHT22;21083;50.898;4.902;2023-03-23T01:08:01;13.50;99.90
20654;DHT22;21083;50.898;4.902;2023-03-23T01:10:28;13.50;99.90
20654;DHT22;21083;50.898;4.902;2023-03-23T01:13:00;13.50;99.90
20654;DHT22;21083;50.898;4.902;2023-03-23T01:15:28;13.50;99.90
20654;DHT22;21083;50.898;4.902;2023-03-23T01:17:56;13.40;99.90
20654;DHT22;21083;50.898;4.902;2023-03-23T01:20:24;13.50;99.90
20654;DHT22;21083;50.898;4.902;2023-03-23T01:22:52;13.40;99.90
20654;DHT22;21083;50.898;4.902;2023-03-23T01:25:26;13.40;99.90
20654;DHT22;21083;50.898;4.902;2023-03-23T01:27:53;13.30;99.90
20654;DHT22;21083;50.898;4.902;2023-03-23T01:30:21;13.30;99.90
20654;DHT22;21083;50.898;4.902;2023-03-23T01:32:48;13.40;99.90
20654;DHT22;21083;50.898;4.902;2023-03-23T01:35:16;13.40;99.90
20654;DHT22;21083;50.898;4.902;2023-03-23T01:37:43;13.40;99.90
20654;DHT22;21083;50.898;4.902;2023-03-23T01:40:11;13.40;99.90
20654;DHT22;21083;50.898;4.902;2023-03-23T01:42:38;13.30;99.90
20654;DHT22;21083;50.898;4.902;2023-03-23T01:45:29;13.30;99.90
20654;DHT22;21083;50.898;4.902;2023-03-23T01:48:03;13.30;99.90
20654;DHT22;21083;50.898;4.902;2023-03-23T01:50:36;13.40;99.90
20654;DHT22;21083;50.898;4.902;2023-03-23T01:53:06;13.30;99.90
20654;DHT22;21083;50.898;4.902;2023-03-23T01:55:36;13.30;99.90
20654;DHT22;21083;50.898;4.902;2023-03-23T01:58:05;13.50;99.90
20654;DHT22;21083;50.898;4.902;2023-03-23T02:00:34;13.50;99.90
20654;DHT22;21083;50.898;4.902;2023-03-23T02:03:03;13.40;99.90
20654;DHT22;21083;50.898;4.902;2023-03-23T02:05:34;13.40;99.90
20654;DHT22;21083;50.898;4.902;2023-03-23T02:08:04;13.40;99.90
20654;DHT22;21083;50.898;4.902;2023-03-23T02:10:35;13.30;99.90
20654;DHT22;21083;50.898;4.902;2023-03-23T02:13:05;13.40;99.90
20654;DHT22;21083;50.898;4.902;2023-03-23T02:15:39;13.40;99.90
20654;DHT22;21083;50.898;4.902;2023-03-23T02:21:26;13.30;99.90
20654;DHT22;21083;50.898;4.902;2023-03-23T02:24:19;13.30;99.90
20654;DHT22;21083;50.898;4.902;2023-03-23T02:26:53;13.30;99.90
20654;DHT22;21083;50.898;4.902;2023-03-23T02:29:47;13.40;99.90
20654;DHT22;21083;50.898;4.902;2023-03-23T02:32:37;13.40;99.90
20654;DHT22;21083;50.898;4.902;2023-03-23T02:35:10;13.40;99.90
20654;DHT22;21083;50.898;4.902;2023-03-23T02:37:40;13.30;99.90
20654;DHT22;21083;50.898;4.902;2023-03-23T02:40:15;13.30;99.90
20654;DHT22;21083;50.898;4.902;2023-03-23T02:42:47;13.40;99.90
20654;DHT22;21083;50.898;4.902;2023-03-23T02:45:17;13.50;99.90
20654;DHT22;21083;50.898;4.902;2023-03-23T02:47:46;13.50;99.90
20654;DHT22;21083;50.898;4.902;2023-03-23T02:50:24;13.40;99.90
20654;DHT22;21083;50.898;4.902;2023-03-23T02:52:53;13.30;99.90
20654;DHT22;21083;50.898;4.902;2023-03-23T02:55:22;13.30;99.90
20654;DHT22;21083;50.898;4.902;2023-03-23T02:57:52;13.30;99.90
20654;DHT22;21083;50.898;4.902;2023-03-23T03:00:19;13.30;99.90
20654;DHT22;21083;50.898;4.902;2023-03-23T03:02:48;13.30;99.90
20654;DHT22;21083;50.898;4.902;2023-03-23T03:05:28;13.30;99.90
20654;DHT22;21083;50.898;4.902;2023-03-23T03:08:02;13.30;99.90
20654;DHT22;21083;50.898;4.902;2023-03-23T03:10:39;13.40;99.90
20654;DHT22;21083;50.898;4.902;2023-03-23T03:13:14;13.30;99.90
20654;DHT22;21083;50.898;4.902;2023-03-23T03:15:49;13.20;99.90
20654;DHT22;21083;50.898;4.902;2023-03-23T03:18:22;13.20;99.90
20654;DHT22;21083;50.898;4.902;2023-03-23T03:20:55;13.30;99.90
20654;DHT22;21083;50.898;4.902;2023-03-23T03:23:25;13.20;99.90
20654;DHT22;21083;50.898;4.902;2023-03-23T03:25:54;13.30;99.90
20654;DHT22;21083;50.898;4.902;2023-03-23T03:28:24;13.20;99.90
20654;DHT22;21083;50.898;4.902;2023-03-23T03:30:56;13.20;99.90
20654;DHT22;21083;50.898;4.902;2023-03-23T03:33:27;13.10;99.90
20654;DHT22;21083;50.898;4.902;2023-03-23T03:35:59;13.20;99.90
20654;DHT22;21083;50.898;4.902;2023-03-23T03:38:27;13.20;99.90
20654;DHT22;21083;50.898;4.902;2023-03-23T03:40:55;13.20;99.90
20654;DHT22;21083;50.898;4.902;2023-03-23T03:43:22;13.20;99.90
20654;DHT22;21083;50.898;4.902;2023-03-23T03:45:49;13.20;99.90
20654;DHT22;21083;50.898;4.902;2023-03-23T03:48:16;13.10;99.90
20654;DHT22;21083;50.898;4.902;2023-03-23T03:50:43;13.20;99.90
20654;DHT22;21083;50.898;4.902;2023-03-23T03:53:12;13.20;99.90
20654;DHT22;21083;50.898;4.902;2023-03-23T03:55:39;13.20;99.90
20654;DHT22;21083;50.898;4.902;2023-03-23T03:58:10;13.10;99.90
20654;DHT22;21083;50.898;4.902;2023-03-23T04:00:38;13.20;99.90
20654;DHT22;21083;50.898;4.902;2023-03-23T04:03:07;13.20;99.90
20654;DHT22;21083;50.898;4.902;2023-03-23T04:05:34;13.20;99.90
20654;DHT22;21083;50.898;4.902;2023-03-23T04:08:02;13.20;99.90
20654;DHT22;21083;50.898;4.902;2023-03-23T04:10:31;13.20;99.90
20654;DHT22;21083;50.898;4.902;2023-03-23T04:13:00;13.10;99.90
20654;DHT22;21083;50.898;4.902;2023-03-23T04:15:27;13.10;99.90
20654;DHT22;21083;50.898;4.902;2023-03-23T04:17:53;13.20;99.90
20654;DHT22;21083;50.898;4.902;2023-03-23T04:20:23;13.10;99.90
20654;DHT22;21083;50.898;4.902;2023-03-23T04:22:51;13.10;99.90
20654;DHT22;21083;50.898;4.902;2023-03-23T04:25:20;13.00;99.90
20654;DHT22;21083;50.898;4.902;2023-03-23T04:27:50;13.00;99.90
20654;DHT22;21083;50.898;4.902;2023-03-23T04:30:19;13.00;99.90
20654;DHT22;21083;50.898;4.902;2023-03-23T04:32:47;13.00;99.90
20654;DHT22;21083;50.898;4.902;2023-03-23T04:35:17;12.90;99.90
20654;DHT22;21083;50.898;4.902;2023-03-23T04:37:44;13.00;99.90
20654;DHT22;21083;50.898;4.902;2023-03-23T04:40:12;12.90;99.90
20654;DHT22;21083;50.898;4.902;2023-03-23T04:42:40;12.90;99.90
20654;DHT22;21083;50.898;4.902;2023-03-23T04:45:14;12.90;99.90
20654;DHT22;21083;50.898;4.902;2023-03-23T04:47:41;12.90;99.90
20654;DHT22;21083;50.898;4.902;2023-03-23T04:50:19;12.90;99.90
20654;DHT22;21083;50.898;4.902;2023-03-23T04:52:47;12.90;99.90
20654;DHT22;21083;50.898;4.902;2023-03-23T04:55:17;12.90;99.90
20654;DHT22;21083;50.898;4.902;2023-03-23T04:57:45;12.90;99.90
20654;DHT22;21083;50.898;4.902;2023-03-23T05:00:14;12.90;99.90
20654;DHT22;21083;50.898;4.902;2023-03-23T05:02:42;12.80;99.90
20654;DHT22;21083;50.898;4.902;2023-03-23T05:05:11;12.90;99.90
20654;DHT22;21083;50.898;4.902;2023-03-23T05:07:39;12.80;99.90
20654;DHT22;21083;50.898;4.902;2023-03-23T05:10:07;12.80;99.90
20654;DHT22;21083;50.898;4.902;2023-03-23T05:12:35;12.80;99.90
20654;DHT22;21083;50.898;4.902;2023-03-23T05:15:03;12.90;99.90
20654;DHT22;21083;50.898;4.902;2023-03-23T05:17:31;12.90;99.90
20654;DHT22;21083;50.898;4.902;2023-03-23T05:19:59;12.90;99.90
20654;DHT22;21083;50.898;4.902;2023-03-23T05:22:27;12.90;99.90
20654;DHT22;21083;50.898;4.902;2023-03-23T05:24:58;12.90;99.90
20654;DHT22;21083;50.898;4.902;2023-03-23T05:27:25;12.90;99.90
20654;DHT22;21083;50.898;4.902;2023-03-23T05:29:53;12.90;99.90
20654;DHT22;21083;50.898;4.902;2023-03-23T05:32:20;12.90;99.90
20654;DHT22;21083;50.898;4.902;2023-03-23T05:34:57;12.90;99.90
20654;DHT22;21083;50.898;4.902;2023-03-23T05:37:25;12.80;99.90
20654;DHT22;21083;50.898;4.902;2023-03-23T05:39:54;12.90;99.90
20654;DHT22;21083;50.898;4.902;2023-03-23T05:42:21;12.90;99.90
20654;DHT22;21083;50.898;4.902;2023-03-23T05:44:48;12.80;99.90
20654;DHT22;21083;50.898;4.902;2023-03-23T05:47:16;12.80;99.90
20654;DHT22;21083;50.898;4.902;2023-03-23T05:49:43;12.80;99.90
20654;DHT22;21083;50.898;4.902;2023-03-23T05:52:11;12.80;99.90
20654;DHT22;21083;50.898;4.902;2023-03-23T05:54:39;12.70;99.90
20654;DHT22;21083;50.898;4.902;2023-03-23T05:57:07;12.80;99.90
20654;DHT22;21083;50.898;4.902;2023-03-23T05:59:34;12.80;99.90
20654;DHT22;21083;50.898;4.902;2023-03-23T06:02:01;12.80;99.90
20654;DHT22;21083;50.898;4.902;2023-03-23T06:04:28;12.80;99.90
20654;DHT22;21083;50.898;4.902;2023-03-23T06:06:55;12.80;99.90
20654;DHT22;21083;50.898;4.902;2023-03-23T06:09:24;12.80;99.90
20654;DHT22;21083;50.898;4.902;2023-03-23T06:11:50;12.70;99.90
20654;DHT22;21083;50.898;4.902;2023-03-23T06:14:18;12.80;99.90
20654;DHT22;21083;50.898;4.902;2023-03-23T06:16:45;12.80;99.90
20654;DHT22;21083;50.898;4.902;2023-03-23T06:19:12;12.80;99.90
20654;DHT22;21083;50.898;4.902;2023-03-23T06:21:40;12.70;99.90
20654;DHT22;21083;50.898;4.902;2023-03-23T06:24:07;12.70;99.90
20654;DHT22;21083;50.898;4.902;2023-03-23T06:26:37;12.80;99.90
20654;DHT22;21083;50.898;4.902;2023-03-23T06:29:07;12.90;99.90
20654;DHT22;21083;50.898;4.902;2023-03-23T06:31:38;12.80;99.90
20654;DHT22;21083;50.898;4.902;2023-03-23T06:34:06;12.80;99.90
20654;DHT22;21083;50.898;4.902;2023-03-23T06:36:34;12.80;99.90
20654;DHT22;21083;50.898;4.902;2023-03-23T06:39:00;12.80;99.90
20654;DHT22;21083;50.898;4.902;2023-03-23T06:41:29;12.80;99.90
20654;DHT22;21083;50.898;4.902;2023-03-23T06:43:58;12.90;99.90
20654;DHT22;21083;50.898;4.902;2023-03-23T06:46:25;12.80;99.90
20654;DHT22;21083;50.898;4.902;2023-03-23T06:48:52;12.80;99.90
20654;DHT22;21083;50.898;4.902;2023-03-23T06:51:19;12.80;99.90
20654;DHT22;21083;50.898;4.902;2023-03-23T06:53:46;12.80;99.90
20654;DHT22;21083;50.898;4.902;2023-03-23T06:56:13;12.80;99.90
20654;DHT22;21083;50.898;4.902;2023-03-23T06:58:40;12.90;99.90
20654;DHT22;21083;50.898;4.902;2023-03-23T07:01:09;12.90;99.90
20654;DHT22;21083;50.898;4.902;2023-03-23T07:03:36;13.00;99.90
20654;DHT22;21083;50.898;4.902;2023-03-23T07:06:03;12.80;99.90
20654;DHT22;21083;50.898;4.902;2023-03-23T07:08:31;12.80;99.90
20654;DHT22;21083;50.898;4.902;2023-03-23T07:10:58;12.90;99.90
20654;DHT22;21083;50.898;4.902;2023-03-23T07:13:25;12.90;99.90
20654;DHT22;21083;50.898;4.902;2023-03-23T07:15:52;12.90;99.90
20654;DHT22;21083;50.898;4.902;2023-03-23T07:18:22;12.90;99.90
20654;DHT22;21083;50.898;4.902;2023-03-23T07:20:49;13.00;99.90
20654;DHT22;21083;50.898;4.902;2023-03-23T07:23:16;12.90;99.90
20654;DHT22;21083;50.898;4.902;2023-03-23T07:25:44;12.90;99.90
20654;DHT22;21083;50.898;4.902;2023-03-23T07:28:12;12.90;99.90
20654;DHT22;21083;50.898;4.902;2023-03-23T07:30:39;12.90;99.90
20654;DHT22;21083;50.898;4.902;2023-03-23T07:33:07;12.80;99.90
20654;DHT22;21083;50.898;4.902;2023-03-23T07:35:36;12.70;99.90
20654;DHT22;21083;50.898;4.902;2023-03-23T07:38:05;12.70;99.90
20654;DHT22;21083;50.898;4.902;2023-03-23T07:40:33;12.60;99.90
20654;DHT22;21083;50.898;4.902;2023-03-23T07:43:02;12.60;99.90
20654;DHT22;21083;50.898;4.902;2023-03-23T07:45:29;12.60;99.90
20654;DHT22;21083;50.898;4.902;2023-03-23T07:47:57;12.60;99.90
20654;DHT22;21083;50.898;4.902;2023-03-23T07:50:24;12.50;99.90
20654;DHT22;21083;50.898;4.902;2023-03-23T07:52:54;12.60;99.90
20654;DHT22;21083;50.898;4.902;2023-03-23T07:55:22;12.50;99.90
20654;DHT22;21083;50.898;4.902;2023-03-23T07:57:51;12.30;99.90
20654;DHT22;21083;50.898;4.902;2023-03-23T08:00:20;12.00;99.90
20654;DHT22;21083;50.898;4.902;2023-03-23T08:02:50;11.70;99.90
20654;DHT22;21083;50.898;4.902;2023-03-23T08:05:18;11.50;99.90
20654;DHT22;21083;50.898;4.902;2023-03-23T08:07:46;11.40;99.90
20654;DHT22;21083;50.898;4.902;2023-03-23T08:10:16;11.20;99.90
20654;DHT22;21083;50.898;4.902;2023-03-23T08:12:44;11.00;99.90
20654;DHT22;21083;50.898;4.902;2023-03-23T08:15:13;11.10;99.90
20654;DHT22;21083;50.898;4.902;2023-03-23T08:17:41;11.00;99.90
20654;DHT22;21083;50.898;4.902;2023-03-23T08:20:09;11.00;99.90
20654;DHT22;21083;50.898;4.902;2023-03-23T08:22:39;10.90;99.90
20654;DHT22;21083;50.898;4.902;2023-03-23T08:25:08;10.90;99.90
20654;DHT22;21083;50.898;4.902;2023-03-23T08:27:38;11.00;99.90
20654;DHT22;21083;50.898;4.902;2023-03-23T08:30:10;11.10;99.90
20654;DHT22;21083;50.898;4.902;2023-03-23T08:32:37;11.10;99.90
20654;DHT22;21083;50.898;4.902;2023-03-23T08:35:07;11.00;99.90
20654;DHT22;21083;50.898;4.902;2023-03-23T08:37:34;11.00;99.90
20654;DHT22;21083;50.898;4.902;2023-03-23T08:40:01;11.00;99.90
20654;DHT22;21083;50.898;4.902;2023-03-23T08:42:34;11.10;99.90
20654;DHT22;21083;50.898;4.902;2023-03-23T08:45:03;11.20;99.90
20654;DHT22;21083;50.898;4.902;2023-03-23T08:47:31;11.30;99.90
20654;DHT22;21083;50.898;4.902;2023-03-23T08:49:58;11.40;99.90
20654;DHT22;21083;50.898;4.902;2023-03-23T08:52:25;11.50;99.90
20654;DHT22;21083;50.898;4.902;2023-03-23T08:54:52;11.60;99.90
20654;DHT22;21083;50.898;4.902;2023-03-23T08:57:19;11.60;99.90
20654;DHT22;21083;50.898;4.902;2023-03-23T08:59:46;11.50;99.90
20654;DHT22;21083;50.898;4.902;2023-03-23T09:02:15;11.60;99.90
20654;DHT22;21083;50.898;4.902;2023-03-23T09:04:43;11.50;99.90
20654;DHT22;21083;50.898;4.902;2023-03-23T09:07:10;11.50;99.90
20654;DHT22;21083;50.898;4.902;2023-03-23T09:09:37;11.50;99.90
20654;DHT22;21083;50.898;4.902;2023-03-23T09:12:06;11.50;99.90
20654;DHT22;21083;50.898;4.902;2023-03-23T09:14:33;11.40;99.90
20654;DHT22;21083;50.898;4.902;2023-03-23T09:17:01;11.30;99.90
20654;DHT22;21083;50.898;4.902;2023-03-23T09:19:30;11.30;99.90
20654;DHT22;21083;50.898;4.902;2023-03-23T09:21:58;11.30;99.90
20654;DHT22;21083;50.898;4.902;2023-03-23T09:24:25;11.20;99.90
20654;DHT22;21083;50.898;4.902;2023-03-23T09:26:52;11.30;99.90
20654;DHT22;21083;50.898;4.902;2023-03-23T09:29:20;11.20;99.90
20654;DHT22;21083;50.898;4.902;2023-03-23T09:31:47;11.30;99.90
20654;DHT22;21083;50.898;4.902;2023-03-23T09:34:14;11.30;99.90
20654;DHT22;21083;50.898;4.902;2023-03-23T09:36:44;11.30;99.90
20654;DHT22;21083;50.898;4.902;2023-03-23T09:39:11;11.20;99.90
20654;DHT22;21083;50.898;4.902;2023-03-23T09:42:07;11.30;99.90
20654;DHT22;21083;50.898;4.902;2023-03-23T09:44:44;11.10;99.90
20654;DHT22;21083;50.898;4.902;2023-03-23T09:47:20;11.10;99.90
20654;DHT22;21083;50.898;4.902;2023-03-23T09:49:53;11.10;99.90
20654;DHT22;21083;50.898;4.902;2023-03-23T09:52:30;11.20;99.90
20654;DHT22;21083;50.898;4.902;2023-03-23T09:54:59;11.30;99.90
20654;DHT22;21083;50.898;4.902;2023-03-23T09:57:30;11.30;99.90
20654;DHT22;21083;50.898;4.902;2023-03-23T10:00:03;11.50;99.90
20654;DHT22;21083;50.898;4.902;2023-03-23T10:02:35;11.60;99.90
20654;DHT22;21083;50.898;4.902;2023-03-23T10:05:26;11.80;99.90
20654;DHT22;21083;50.898;4.902;2023-03-23T10:07:56;11.90;99.90
20654;DHT22;21083;50.898;4.902;2023-03-23T10:10:29;11.90;99.90
20654;DHT22;21083;50.898;4.902;2023-03-23T10:13:02;12.00;99.90
20654;DHT22;21083;50.898;4.902;2023-03-23T10:15:34;11.90;99.90
20654;DHT22;21083;50.898;4.902;2023-03-23T10:18:08;12.10;99.90
20654;DHT22;21083;50.898;4.902;2023-03-23T10:20:43;12.00;99.90
20654;DHT22;21083;50.898;4.902;2023-03-23T10:23:24;12.10;99.90
20654;DHT22;21083;50.898;4.902;2023-03-23T10:26:04;12.30;99.90
20654;DHT22;21083;50.898;4.902;2023-03-23T10:28:36;12.50;99.90
20654;DHT22;21083;50.898;4.902;2023-03-23T10:31:07;12.30;99.90
20654;DHT22;21083;50.898;4.902;2023-03-23T10:33:40;12.40;99.90
20654;DHT22;21083;50.898;4.902;2023-03-23T10:36:12;12.30;99.90
20654;DHT22;21083;50.898;4.902;2023-03-23T10:38:44;12.30;99.90
20654;DHT22;21083;50.898;4.902;2023-03-23T10:41:14;12.50;99.90
20654;DHT22;21083;50.898;4.902;2023-03-23T10:43:41;12.50;99.90
20654;DHT22;21083;50.898;4.902;2023-03-23T10:46:19;12.70;99.90
20654;DHT22;21083;50.898;4.902;2023-03-23T10:48:51;12.60;99.90
20654;DHT22;21083;50.898;4.902;2023-03-23T10:51:23;12.60;99.90
20654;DHT22;21083;50.898;4.902;2023-03-23T10:53:58;12.70;99.90
20654;DHT22;21083;50.898;4.902;2023-03-23T10:56:28;12.70;99.90
20654;DHT22;21083;50.898;4.902;2023-03-23T10:58:56;12.80;99.90
20654;DHT22;21083;50.898;4.902;2023-03-23T11:01:30;13.00;99.90
20654;DHT22;21083;50.898;4.902;2023-03-23T11:03:57;13.10;99.90
20654;DHT22;21083;50.898;4.902;2023-03-23T11:06:29;13.40;99.90
20654;DHT22;21083;50.898;4.902;2023-03-23T11:09:01;13.60;99.90
20654;DHT22;21083;50.898;4.902;2023-03-23T11:11:31;13.70;99.90
20654;DHT22;21083;50.898;4.902;2023-03-23T11:13:59;13.70;99.90
20654;DHT22;21083;50.898;4.902;2023-03-23T11:16:29;13.70;99.90
20654;DHT22;21083;50.898;4.902;2023-03-23T11:18:58;13.90;99.90
20654;DHT22;21083;50.898;4.902;2023-03-23T11:21:27;14.00;99.90
20654;DHT22;21083;50.898;4.902;2023-03-23T11:23:57;14.00;99.90
20654;DHT22;21083;50.898;4.902;2023-03-23T11:26:27;13.90;99.90
20654;DHT22;21083;50.898;4.902;2023-03-23T11:28:58;13.90;99.90
20654;DHT22;21083;50.898;4.902;2023-03-23T11:31:30;13.90;99.90
20654;DHT22;21083;50.898;4.902;2023-03-23T11:34:01;13.80;99.90
20654;DHT22;21083;50.898;4.902;2023-03-23T11:36:36;13.80;99.90
20654;DHT22;21083;50.898;4.902;2023-03-23T11:39:22;13.90;99.90
20654;DHT22;21083;50.898;4.902;2023-03-23T11:41:50;14.10;99.90
20654;DHT22;21083;50.898;4.902;2023-03-23T11:44:17;14.20;99.90
20654;DHT22;21083;50.898;4.902;2023-03-23T11:46:50;14.20;99.90
20654;DHT22;21083;50.898;4.902;2023-03-23T11:49:34;14.30;99.90
20654;DHT22;21083;50.898;4.902;2023-03-23T11:52:11;14.40;99.90
20654;DHT22;21083;50.898;4.902;2023-03-23T11:54:46;14.60;99.90
20654;DHT22;21083;50.898;4.902;2023-03-23T11:57:14;14.90;99.90
20654;DHT22;21083;50.898;4.902;2023-03-23T11:59:42;15.20;99.90
20654;DHT22;21083;50.898;4.902;2023-03-23T12:02:36;15.20;99.90
20654;DHT22;21083;50.898;4.902;2023-03-23T12:05:34;15.10;99.90
20654;DHT22;21083;50.898;4.902;2023-03-23T12:08:24;15.10;99.90
20654;DHT22;21083;50.898;4.902;2023-03-23T12:11:00;15.20;99.90
20654;DHT22;21083;50.898;4.902;2023-03-23T12:13:56;15.40;99.90
20654;DHT22;21083;50.898;4.902;2023-03-23T12:16:35;15.20;99.90
20654;DHT22;21083;50.898;4.902;2023-03-23T12:19:11;15.00;99.90
20654;DHT22;21083;50.898;4.902;2023-03-23T12:21:52;14.90;99.90
20654;DHT22;21083;50.898;4.902;2023-03-23T12:24:33;14.70;99.90
20654;DHT22;21083;50.898;4.902;2023-03-23T12:27:09;14.70;99.90
20654;DHT22;21083;50.898;4.902;2023-03-23T12:29:51;14.80;99.90
20654;DHT22;21083;50.898;4.902;2023-03-23T12:32:38;14.70;99.90
20654;DHT22;21083;50.898;4.902;2023-03-23T12:35:20;15.00;99.90
20654;DHT22;21083;50.898;4.902;2023-03-23T12:37:59;15.20;99.90
20654;DHT22;21083;50.898;4.902;2023-03-23T12:40:43;15.80;99.90
20654;DHT22;21083;50.898;4.902;2023-03-23T12:43:20;16.20;99.90
20654;DHT22;21083;50.898;4.902;2023-03-23T12:46:14;16.50;99.90
20654;DHT22;21083;50.898;4.902;2023-03-23T12:48:48;16.30;99.90
20654;DHT22;21083;50.898;4.902;2023-03-23T12:51:21;15.80;99.90
20654;DHT22;21083;50.898;4.902;2023-03-23T12:53:55;15.60;99.90
20654;DHT22;21083;50.898;4.902;2023-03-23T12:56:29;15.40;99.90
20654;DHT22;21083;50.898;4.902;2023-03-23T12:59:06;15.20;99.90
20654;DHT22;21083;50.898;4.902;2023-03-23T13:01:40;15.00;99.90
20654;DHT22;21083;50.898;4.902;2023-03-23T13:04:11;14.90;99.90
20654;DHT22;21083;50.898;4.902;2023-03-23T13:06:41;15.00;99.90
20654;DHT22;21083;50.898;4.902;2023-03-23T13:09:13;15.00;99.90
20654;DHT22;21083;50.898;4.902;2023-03-23T13:11:43;14.80;99.90
20654;DHT22;21083;50.898;4.902;2023-03-23T13:14:40;14.70;99.90
20654;DHT22;21083;50.898;4.902;2023-03-23T13:17:20;14.30;99.90
20654;DHT22;21083;50.898;4.902;2023-03-23T13:22:53;14.00;99.90
20654;DHT22;21083;50.898;4.902;2023-03-23T13:25:35;14.00;99.90
20654;DHT22;21083;50.898;4.902;2023-03-23T13:28:05;14.10;99.90
20654;DHT22;21083;50.898;4.902;2023-03-23T13:30:41;14.30;99.90
20654;DHT22;21083;50.898;4.902;2023-03-23T13:33:20;14.70;99.90
20654;DHT22;21083;50.898;4.902;2023-03-23T13:35:49;15.00;99.90
20654;DHT22;21083;50.898;4.902;2023-03-23T13:38:21;15.00;99.90
20654;DHT22;21083;50.898;4.902;2023-03-23T13:40:51;15.20;99.90
20654;DHT22;21083;50.898;4.902;2023-03-23T13:43:27;15.70;99.90
20654;DHT22;21083;50.898;4.902;2023-03-23T13:46:07;16.10;99.90
20654;DHT22;21083;50.898;4.902;2023-03-23T13:48:42;16.40;99.90
20654;DHT22;21083;50.898;4.902;2023-03-23T13:51:26;16.50;99.90
20654;DHT22;21083;50.898;4.902;2023-03-23T13:54:19;17.00;99.90
20654;DHT22;21083;50.898;4.902;2023-03-23T13:56:55;17.20;99.90
20654;DHT22;21083;50.898;4.902;2023-03-23T13:59:34;17.00;99.90
20654;DHT22;21083;50.898;4.902;2023-03-23T14:02:31;17.20;99.90
20654;DHT22;21083;50.898;4.902;2023-03-23T14:05:25;17.50;99.90
20654;DHT22;21083;50.898;4.902;2023-03-23T14:07:56;17.90;99.90
20654;DHT22;21083;50.898;4.902;2023-03-23T14:10:31;17.90;99.90
20654;DHT22;21083;50.898;4.902;2023-03-23T14:12:59;17.90;99.90
20654;DHT22;21083;50.898;4.902;2023-03-23T14:15:29;17.50;99.90
20654;DHT22;21083;50.898;4.902;2023-03-23T14:18:02;17.00;99.90
20654;DHT22;21083;50.898;4.902;2023-03-23T14:20:32;16.80;99.90
20654;DHT22;21083;50.898;4.902;2023-03-23T14:23:00;16.80;99.90
20654;DHT22;21083;50.898;4.902;2023-03-23T14:25:29;16.20;99.90
20654;DHT22;21083;50.898;4.902;2023-03-23T14:27:58;16.10;99.90
20654;DHT22;21083;50.898;4.902;2023-03-23T14:30:28;16.20;99.90
20654;DHT22;21083;50.898;4.902;2023-03-23T14:33:05;16.40;99.90
20654;DHT22;21083;50.898;4.902;2023-03-23T14:35:35;16.50;99.90
20654;DHT22;21083;50.898;4.902;2023-03-23T14:38:04;16.70;99.90
20654;DHT22;21083;50.898;4.902;2023-03-23T14:40:40;16.90;99.90
20654;DHT22;21083;50.898;4.902;2023-03-23T14:43:09;16.90;99.90
20654;DHT22;21083;50.898;4.902;2023-03-23T14:45:38;16.60;99.90
20654;DHT22;21083;50.898;4.902;2023-03-23T14:48:08;16.40;99.90
20654;DHT22;21083;50.898;4.902;2023-03-23T14:50:39;16.30;99.90
20654;DHT22;21083;50.898;4.902;2023-03-23T14:53:13;16.00;99.90
20654;DHT22;21083;50.898;4.902;2023-03-23T14:55:43;15.90;99.90
20654;DHT22;21083;50.898;4.902;2023-03-23T14:58:13;15.90;99.90
20654;DHT22;21083;50.898;4.902;2023-03-23T15:00:43;15.70;99.90
20654;DHT22;21083;50.898;4.902;2023-03-23T15:03:16;15.80;99.90
20654;DHT22;21083;50.898;4.902;2023-03-23T15:05:47;15.80;99.90
20654;DHT22;21083;50.898;4.902;2023-03-23T15:08:18;15.80;99.90
20654;DHT22;21083;50.898;4.902;2023-03-23T15:10:52;15.90;99.90
20654;DHT22;21083;50.898;4.902;2023-03-23T15:13:20;15.90;99.90
20654;DHT22;21083;50.898;4.902;2023-03-23T15:15:47;15.80;99.90
20654;DHT22;21083;50.898;4.902;2023-03-23T15:18:29;15.80;99.90
20654;DHT22;21083;50.898;4.902;2023-03-23T15:20:56;16.00;99.90
20654;DHT22;21083;50.898;4.902;2023-03-23T15:23:27;16.20;99.90
20654;DHT22;21083;50.898;4.902;2023-03-23T15:25:56;16.10;99.90
20654;DHT22;21083;50.898;4.902;2023-03-23T15:28:29;16.40;99.90
20654;DHT22;21083;50.898;4.902;2023-03-23T15:30:59;16.50;99.90
20654;DHT22;21083;50.898;4.902;2023-03-23T15:33:34;16.60;99.90
20654;DHT22;21083;50.898;4.902;2023-03-23T15:36:06;16.50;99.90
20654;DHT22;21083;50.898;4.902;2023-03-23T15:38:34;16.50;99.90
20654;DHT22;21083;50.898;4.902;2023-03-23T15:41:04;16.90;99.90
20654;DHT22;21083;50.898;4.902;2023-03-23T15:43:33;17.00;99.90
20654;DHT22;21083;50.898;4.902;2023-03-23T15:46:02;17.20;99.90
20654;DHT22;21083;50.898;4.902;2023-03-23T15:48:33;17.40;99.90
20654;DHT22;21083;50.898;4.902;2023-03-23T15:51:12;17.10;99.90
20654;DHT22;21083;50.898;4.902;2023-03-23T15:53:40;17.00;99.90
20654;DHT22;21083;50.898;4.902;2023-03-23T15:56:09;16.90;99.90
20654;DHT22;21083;50.898;4.902;2023-03-23T15:58:37;16.80;99.90
20654;DHT22;21083;50.898;4.902;2023-03-23T16:01:09;16.60;99.90